createdAt,value
2023-01-17T00:02:43.342Z,96761.78
2023-01-17T00:08:03.340Z,96767.31
2023-01-17T00:13:04.971Z,96763.50
2023-01-17T00:18:06.598Z,96763.59
2023-01-17T00:23:31.604Z,96763.31
2023-01-17T00:28:35.887Z,96768.53
2023-01-17T00:33:37.715Z,96765.56
2023-01-17T00:38:40.417Z,96763.06
2023-01-17T00:44:00.793Z,96788.16
2023-01-17T00:49:21.180Z,96788.78
2023-01-17T00:54:41.364Z,96803.31
2023-01-17T01:00:01.936Z,96819.16
2023-01-17T01:05:22.609Z,96820.59
2023-01-17T01:10:42.907Z,96828.69
2023-01-17T01:16:03.295Z,96846.88
2023-01-17T01:21:23.471Z,96872.22
2023-01-17T01:26:43.488Z,96876.66
2023-01-17T01:32:03.425Z,96893.44
2023-01-17T01:37:05.008Z,96900.09
2023-01-17T01:42:14.418Z,96908.22
2023-01-17T01:47:24.040Z,96926.25
2023-01-17T01:52:30.278Z,96921.22
2023-01-17T01:57:40.051Z,96935.91
2023-01-17T02:02:43.152Z,96945.59
2023-01-17T02:08:02.891Z,96949.13
2023-01-17T02:13:05.840Z,96960.97
2023-01-17T02:18:29.315Z,96965.97
2023-01-17T02:23:52.157Z,96982.44
2023-01-17T02:29:02.362Z,96982.69
2023-01-17T02:34:20.593Z,96983.88
2023-01-17T02:39:28.410Z,96983.41
2023-01-17T02:44:30.122Z,96987.88
2023-01-17T02:49:32.510Z,96993.00
2023-01-17T02:54:46.169Z,96993.22
2023-01-17T03:00:02.683Z,96998.28
2023-01-17T03:05:12.595Z,97010.50
2023-01-17T03:10:18.049Z,97015.63
2023-01-17T03:15:19.732Z,97016.28
2023-01-17T03:20:22.646Z,97015.03
2023-01-17T03:25:24.393Z,97017.34
2023-01-17T03:30:26.039Z,97026.59
2023-01-17T03:35:28.409Z,97031.38
2023-01-17T03:40:30.015Z,97038.91
2023-01-17T03:45:31.705Z,97045.66
2023-01-17T03:50:33.388Z,97054.97
2023-01-17T03:55:35.026Z,97057.47
2023-01-17T04:00:37.037Z,97057.34
2023-01-17T04:05:38.599Z,97062.41
2023-01-17T04:10:40.209Z,97060.28
2023-01-17T04:15:41.807Z,97068.31
2023-01-17T04:20:43.554Z,97061.00
2023-01-17T04:25:45.323Z,97065.31
2023-01-17T04:30:46.971Z,97059.00
2023-01-17T04:35:48.556Z,97072.59
2023-01-17T04:40:50.716Z,97067.34
2023-01-17T04:45:59.518Z,97078.50
2023-01-17T04:51:05.440Z,97074.50
2023-01-17T04:56:07.555Z,97072.28
2023-01-17T05:01:10.000Z,97069.06
2023-01-17T05:06:11.741Z,97078.28
2023-01-17T05:11:13.316Z,97082.06
2023-01-17T05:16:18.848Z,97081.66
2023-01-17T05:21:21.687Z,97095.16
2023-01-17T05:26:23.440Z,97111.63
2023-01-17T05:31:25.125Z,97104.53
2023-01-17T05:36:26.787Z,97105.56
2023-01-17T05:41:28.388Z,97115.75
2023-01-17T05:46:30.305Z,97116.38
2023-01-17T05:51:31.958Z,97119.31
2023-01-17T05:56:33.945Z,97110.97
2023-01-17T06:01:35.684Z,97116.31
2023-01-17T06:06:37.322Z,97115.88
2023-01-17T06:11:38.917Z,97116.38
2023-01-17T06:16:40.528Z,97118.41
2023-01-17T06:21:42.098Z,97134.34
2023-01-17T06:26:44.538Z,97151.13
2023-01-17T06:31:46.141Z,97161.00
2023-01-17T06:36:47.752Z,97162.06
2023-01-17T06:41:49.345Z,97170.78
2023-01-17T06:46:50.987Z,97167.50
2023-01-17T06:51:52.614Z,97176.50
2023-01-17T06:56:54.367Z,97179.34
2023-01-17T07:01:56.171Z,97188.47
2023-01-17T07:06:58.191Z,97189.78
2023-01-17T07:12:01.999Z,97194.56
2023-01-17T07:17:04.343Z,97197.59
2023-01-17T07:22:05.931Z,97196.78
2023-01-17T07:27:07.707Z,97197.50
2023-01-17T07:32:10.980Z,97201.72
2023-01-17T07:37:15.094Z,97187.25
2023-01-17T07:42:17.013Z,97186.78
2023-01-17T07:47:18.647Z,97177.22
2023-01-17T07:52:20.241Z,97175.66
2023-01-17T07:57:21.827Z,97175.50
2023-01-17T08:02:24.091Z,97176.66
2023-01-17T08:07:25.717Z,97172.53
2023-01-17T08:12:29.362Z,97162.81
2023-01-17T08:17:30.957Z,97153.69
2023-01-17T08:22:32.570Z,97152.53
2023-01-17T08:27:36.158Z,97147.44
2023-01-17T08:32:40.836Z,97141.81
2023-01-17T08:37:42.491Z,97147.84
2023-01-17T08:42:44.321Z,97146.63
2023-01-17T08:47:46.052Z,97142.53
2023-01-17T08:52:48.718Z,97144.59
2023-01-17T08:57:50.389Z,97145.63
2023-01-17T09:02:53.166Z,97141.00
2023-01-17T09:07:55.466Z,97149.50
2023-01-17T09:12:57.079Z,97145.72
2023-01-17T09:17:58.760Z,97150.03
2023-01-17T09:23:03.255Z,97152.19
2023-01-17T09:28:04.860Z,97154.66
2023-01-17T09:33:06.439Z,97147.34
2023-01-17T09:38:08.129Z,97156.06
2023-01-17T09:43:19.175Z,97151.63
2023-01-17T09:48:33.984Z,97154.06
2023-01-17T09:53:39.060Z,97157.50
2023-01-17T09:58:49.755Z,97149.41
2023-01-17T10:03:54.253Z,97147.81
2023-01-17T10:09:10.777Z,97147.81
2023-01-17T10:14:31.290Z,97161.09
2023-01-17T10:20:12.396Z,97155.16
2023-01-17T10:25:48.538Z,97149.09
2023-01-17T10:30:52.686Z,97151.31
2023-01-17T10:36:00.588Z,97148.22
2023-01-17T10:41:04.921Z,97132.13
2023-01-17T10:46:15.313Z,97138.16
2023-01-17T10:51:44.888Z,97137.44
2023-01-17T10:56:46.644Z,97136.88
2023-01-17T11:01:50.360Z,97139.72
2023-01-17T11:07:11.399Z,97137.00
2023-01-17T11:12:26.696Z,97145.28
2023-01-17T11:17:29.522Z,97135.03
2023-01-17T11:22:31.986Z,97128.34
2023-01-17T11:27:39.532Z,97124.34
2023-01-17T11:32:59.617Z,97120.25
2023-01-17T11:38:19.600Z,97127.41
2023-01-17T11:43:27.630Z,97116.59
2023-01-17T11:48:35.264Z,97123.88
2023-01-17T11:53:40.211Z,97124.16
2023-01-17T11:58:42.600Z,97117.44
2023-01-17T12:03:57.775Z,97102.41
2023-01-17T12:09:22.987Z,97098.16
2023-01-17T12:14:35.961Z,97083.00
2023-01-17T12:20:05.188Z,97077.13
2023-01-17T12:25:36.643Z,97073.13
2023-01-17T12:30:41.363Z,97065.16
2023-01-17T12:35:50.725Z,97057.63
2023-01-17T12:41:11.096Z,97044.91
2023-01-17T12:46:27.187Z,97053.38
2023-01-17T12:51:34.691Z,97042.75
2023-01-17T12:56:45.987Z,97050.56
2023-01-17T13:01:58.391Z,97042.81
2023-01-17T13:07:03.551Z,97039.97
2023-01-17T13:12:12.844Z,97042.81
2023-01-17T13:17:45.800Z,97045.53
2023-01-17T13:22:47.757Z,97042.13
2023-01-17T13:28:08.193Z,97032.69
2023-01-17T13:33:28.442Z,97032.34
2023-01-17T13:38:30.113Z,97036.81
2023-01-17T13:43:37.292Z,97033.03
2023-01-17T13:48:40.888Z,97037.53
2023-01-17T13:53:43.511Z,97031.09
2023-01-17T13:59:02.664Z,97034.84
2023-01-17T14:04:07.359Z,97032.38
2023-01-17T14:09:15.512Z,97030.25
2023-01-17T14:14:41.822Z,97022.41
2023-01-17T14:19:48.746Z,97036.50
2023-01-17T14:25:12.226Z,97033.19
2023-01-17T14:30:16.719Z,97037.91
2023-01-17T14:35:23.354Z,97034.97
2023-01-17T14:40:29.510Z,97037.56
2023-01-17T14:45:34.023Z,97039.09
2023-01-17T14:50:41.900Z,97033.91
2023-01-17T14:55:49.188Z,97037.78
2023-01-17T15:00:55.174Z,97033.06
2023-01-17T15:06:04.891Z,97024.25
2023-01-17T15:11:11.010Z,97026.00
2023-01-17T15:16:29.762Z,97033.50
2023-01-17T15:21:40.534Z,97033.31
2023-01-17T15:26:45.901Z,97033.97
2023-01-17T15:31:50.967Z,97036.41
2023-01-17T15:36:53.328Z,97035.44
2023-01-17T15:42:01.785Z,97041.59
2023-01-17T15:47:03.860Z,97043.81
2023-01-17T15:52:08.954Z,97052.75
2023-01-17T15:57:33.429Z,97059.47
2023-01-17T16:02:45.692Z,97056.47
2023-01-17T16:07:48.368Z,97065.56
2023-01-17T16:12:54.126Z,97059.41
2023-01-17T16:18:03.215Z,97065.59
2023-01-17T16:23:04.927Z,97061.06
2023-01-17T16:28:06.782Z,97054.50
2023-01-17T16:33:11.964Z,97056.78
2023-01-17T16:38:19.963Z,97058.63
2023-01-17T16:43:21.640Z,97070.53
2023-01-17T16:48:23.265Z,97076.19
2023-01-17T16:53:27.098Z,97080.94
2023-01-17T16:58:28.683Z,97091.75
2023-01-17T17:03:30.679Z,97094.63
2023-01-17T17:08:34.907Z,97097.94
2023-01-17T17:13:39.145Z,97095.53
2023-01-17T17:18:41.948Z,97099.19
2023-01-17T17:23:43.579Z,97092.06
2023-01-17T17:28:45.174Z,97104.50
2023-01-17T17:33:47.111Z,97107.94
2023-01-17T17:38:51.545Z,97115.34
2023-01-17T17:43:53.838Z,97103.19
2023-01-17T17:48:57.558Z,97106.25
2023-01-17T17:54:04.957Z,97120.38
2023-01-17T17:59:09.128Z,97113.28
2023-01-17T18:04:12.476Z,97115.63
2023-01-17T18:09:14.387Z,97114.84
2023-01-17T18:14:17.773Z,97120.78
2023-01-17T18:19:24.874Z,97126.97
2023-01-17T18:24:27.594Z,97125.22
2023-01-17T18:29:29.314Z,97148.28
2023-01-17T18:34:31.264Z,97161.03
2023-01-17T18:39:32.960Z,97155.38
2023-01-17T18:44:34.648Z,97160.84
2023-01-17T18:49:36.550Z,97165.09
2023-01-17T18:54:38.130Z,97174.56
2023-01-17T18:59:40.060Z,97173.94
2023-01-17T19:04:41.731Z,97178.38
2023-01-17T19:09:44.202Z,97176.09
2023-01-17T19:14:45.783Z,97175.47
2023-01-17T19:19:48.356Z,97195.34
2023-01-17T19:24:53.076Z,97194.03
2023-01-17T19:29:54.661Z,97193.81
2023-01-17T19:34:56.516Z,97210.41
2023-01-17T19:39:58.622Z,97217.22
2023-01-17T19:45:00.230Z,97217.63
2023-01-17T19:50:02.315Z,97218.03
2023-01-17T19:55:07.026Z,97222.38
2023-01-17T20:00:13.180Z,97211.97
2023-01-17T20:05:14.869Z,97217.31
2023-01-17T20:10:17.879Z,97219.81
2023-01-17T20:15:19.499Z,97221.03
2023-01-17T20:20:22.801Z,97227.53
2023-01-17T20:25:24.485Z,97233.69
2023-01-17T20:30:30.047Z,97234.59
2023-01-17T20:35:32.471Z,97229.44
2023-01-17T20:40:34.062Z,97242.00
2023-01-17T20:45:36.229Z,97250.44
2023-01-17T20:50:37.867Z,97256.94
2023-01-17T20:55:39.975Z,97266.81
2023-01-17T21:00:42.278Z,97256.41
2023-01-17T21:05:43.869Z,97264.03
2023-01-17T21:10:49.154Z,97267.81
2023-01-17T21:15:53.474Z,97268.53
2023-01-17T21:20:55.356Z,97273.50
2023-01-17T21:25:57.847Z,97270.97
2023-01-17T21:30:59.726Z,97272.41
2023-01-17T21:36:08.536Z,97279.38
2023-01-17T21:41:10.329Z,97268.69
2023-01-17T21:46:12.165Z,97272.59
2023-01-17T21:51:13.812Z,97272.81
2023-01-17T21:56:34.479Z,97270.66
2023-01-17T22:01:36.134Z,97280.00
2023-01-17T22:06:40.419Z,97288.44
2023-01-17T22:11:42.172Z,97282.91
2023-01-17T22:16:43.819Z,97277.66
2023-01-17T22:21:45.442Z,97278.28
2023-01-17T22:26:47.054Z,97281.50
2023-01-17T22:31:49.170Z,97281.72
2023-01-17T22:36:50.833Z,97281.06
2023-01-17T22:41:52.491Z,97274.44
2023-01-17T22:46:54.049Z,97276.31
2023-01-17T22:51:55.648Z,97276.13
2023-01-17T22:56:57.246Z,97273.63
2023-01-17T23:01:59.673Z,97276.41
2023-01-17T23:07:01.276Z,97280.94
2023-01-17T23:12:02.889Z,97280.94
2023-01-17T23:17:22.943Z,97276.25
2023-01-17T23:22:27.986Z,97273.75
2023-01-17T23:28:05.611Z,97274.16
2023-01-17T23:33:12.688Z,97269.88
2023-01-17T23:38:30.701Z,97272.25
2023-01-17T23:43:33.114Z,97270.97
2023-01-17T23:48:34.753Z,97268.88
2023-01-17T23:53:38.042Z,97262.28
2023-01-17T23:58:39.604Z,97268.91
